createdAt,value
2017-05-27T00:00:54.975Z,0
2017-05-27T00:01:55.727Z,0
2017-05-27T00:02:56.455Z,0
2017-05-27T00:03:57.185Z,0
2017-05-27T00:04:57.915Z,0
2017-05-27T00:05:58.892Z,0
2017-05-27T00:06:59.621Z,0
2017-05-27T00:08:00.347Z,0
2017-05-27T00:09:01.079Z,0
2017-05-27T00:10:01.806Z,0
2017-05-27T00:11:02.787Z,0
2017-05-27T00:12:03.515Z,0
2017-05-27T00:13:04.245Z,0
2017-05-27T00:14:04.973Z,0
2017-05-27T00:15:05.702Z,0
2017-05-27T00:16:06.681Z,0
2017-05-27T00:17:07.411Z,0
2017-05-27T00:18:08.139Z,0
2017-05-27T00:19:08.868Z,0
2017-05-27T00:20:09.598Z,0
2017-05-27T00:21:10.576Z,0
2017-05-27T00:22:11.304Z,0
2017-05-27T00:23:12.029Z,0
2017-05-27T00:24:12.758Z,0
2017-05-27T00:25:13.487Z,0
2017-05-27T00:26:14.486Z,0
2017-05-27T00:27:15.215Z,0
2017-05-27T00:28:15.943Z,0
2017-05-27T00:29:16.672Z,0
2017-05-27T00:30:17.425Z,0
2017-05-27T00:31:18.401Z,0
2017-05-27T00:32:19.128Z,0
2017-05-27T00:33:19.858Z,0
2017-05-27T00:34:20.609Z,0
2017-05-27T00:35:21.337Z,0
2017-05-27T00:36:22.317Z,0
2017-05-27T00:37:23.045Z,0
2017-05-27T00:38:23.773Z,0
2017-05-27T00:39:24.502Z,0
2017-05-27T00:40:25.227Z,0
2017-05-27T00:41:26.209Z,0
2017-05-27T00:42:26.936Z,0
2017-05-27T00:43:27.662Z,0
2017-05-27T00:44:28.390Z,0
2017-05-27T00:45:29.115Z,0
2017-05-27T00:46:30.094Z,0
2017-05-27T00:47:30.822Z,0
2017-05-27T00:48:31.552Z,0
2017-05-27T00:49:32.276Z,0
2017-05-27T00:50:33.003Z,0
2017-05-27T00:51:33.981Z,0
2017-05-27T00:52:34.711Z,0
2017-05-27T00:53:35.439Z,0
2017-05-27T00:54:36.169Z,0
2017-05-27T00:55:36.895Z,0
2017-05-27T00:56:37.872Z,0
2017-05-27T00:57:38.606Z,0
2017-05-27T00:58:39.354Z,0
2017-05-27T00:59:40.083Z,0
2017-05-27T01:00:40.836Z,0
2017-05-27T01:01:41.811Z,0
2017-05-27T01:02:42.540Z,0
2017-05-27T01:03:43.268Z,0
2017-05-27T01:04:43.996Z,0
2017-05-27T01:05:44.726Z,0
2017-05-27T01:06:45.703Z,0
2017-05-27T01:07:46.433Z,0
2017-05-27T01:08:47.161Z,0
2017-05-27T01:09:47.892Z,0
2017-05-27T01:10:48.618Z,0
2017-05-27T01:11:49.622Z,0
2017-05-27T01:12:50.349Z,0
2017-05-27T01:13:51.078Z,0
2017-05-27T01:14:51.807Z,0
2017-05-27T01:15:52.538Z,0
2017-05-27T01:16:53.518Z,0
2017-05-27T01:17:54.245Z,0
2017-05-27T01:18:54.974Z,0
2017-05-27T01:19:55.729Z,0
2017-05-27T01:20:56.457Z,0
2017-05-27T01:21:57.437Z,0
2017-05-27T01:22:58.167Z,0
2017-05-27T01:23:58.894Z,0
2017-05-27T01:24:59.626Z,0
2017-05-27T01:26:00.352Z,0
2017-05-27T01:27:01.331Z,0
2017-05-27T01:28:02.060Z,0
2017-05-27T01:29:02.790Z,0
2017-05-27T01:30:03.517Z,0
2017-05-27T01:31:04.243Z,0
2017-05-27T01:32:05.223Z,0
2017-05-27T01:33:05.953Z,0
2017-05-27T01:34:06.708Z,0
2017-05-27T01:35:07.433Z,0
2017-05-27T01:36:08.164Z,0
2017-05-27T01:37:09.145Z,0
2017-05-27T01:38:09.871Z,0
2017-05-27T01:39:10.597Z,0
2017-05-27T01:40:11.325Z,0
2017-05-27T01:41:12.053Z,0
2017-05-27T01:42:13.034Z,0
2017-05-27T01:43:13.761Z,0
2017-05-27T01:44:14.488Z,0
2017-05-27T01:45:15.215Z,0
2017-05-27T01:46:15.946Z,0
2017-05-27T01:47:16.949Z,0
2017-05-27T01:48:17.676Z,0
2017-05-27T01:49:18.404Z,0
2017-05-27T01:50:19.132Z,0
2017-05-27T01:51:19.861Z,0
2017-05-27T01:52:20.842Z,0
2017-05-27T01:53:21.569Z,0
2017-05-27T01:54:22.299Z,0
2017-05-27T01:55:23.027Z,0
2017-05-27T01:56:23.756Z,0
2017-05-27T01:57:24.734Z,0
2017-05-27T01:58:25.463Z,0
2017-05-27T01:59:26.194Z,0
2017-05-27T02:00:26.920Z,0
2017-05-27T02:01:27.651Z,0
2017-05-27T02:02:28.631Z,0
2017-05-27T02:03:29.357Z,0
2017-05-27T02:04:30.088Z,0
2017-05-27T02:05:30.817Z,0
2017-05-27T02:06:31.543Z,0
2017-05-27T02:07:32.526Z,0
2017-05-27T02:08:33.254Z,0
2017-05-27T02:09:33.981Z,0
2017-05-27T02:10:34.712Z,0
2017-05-27T02:11:35.441Z,0
2017-05-27T02:12:36.417Z,0
2017-05-27T02:13:37.144Z,0
2017-05-27T02:14:37.874Z,0
2017-05-27T02:15:38.601Z,0
2017-05-27T02:16:39.329Z,0
2017-05-27T02:17:40.309Z,0
2017-05-27T02:18:41.036Z,0
2017-05-27T02:19:41.766Z,0
2017-05-27T02:20:42.497Z,0
2017-05-27T02:21:43.223Z,0
2017-05-27T02:22:44.202Z,0
2017-05-27T02:23:44.931Z,0
2017-05-27T02:24:45.658Z,0
2017-05-27T02:25:46.416Z,0
2017-05-27T02:26:47.145Z,0
2017-05-27T02:27:48.121Z,0
2017-05-27T02:28:48.852Z,0
2017-05-27T02:29:49.580Z,0
2017-05-27T02:30:50.310Z,0
2017-05-27T02:31:51.039Z,0
2017-05-27T02:32:52.014Z,0
2017-05-27T02:33:52.746Z,0
2017-05-27T02:34:53.501Z,0
2017-05-27T02:35:54.228Z,0
2017-05-27T02:36:54.958Z,0
2017-05-27T02:37:55.934Z,0
2017-05-27T02:38:56.663Z,0
2017-05-27T02:39:57.390Z,0
2017-05-27T02:40:58.120Z,4
2017-05-27T02:41:58.848Z,4
2017-05-27T02:42:59.829Z,0
2017-05-27T02:44:00.556Z,0
2017-05-27T02:45:01.287Z,4
2017-05-27T02:46:02.043Z,4
2017-05-27T02:47:02.796Z,4
2017-05-27T02:48:03.774Z,4
2017-05-27T02:49:04.503Z,8
2017-05-27T02:50:05.233Z,4
2017-05-27T02:51:05.964Z,4
2017-05-27T02:52:06.715Z,8
2017-05-27T02:53:07.696Z,8
2017-05-27T02:54:08.425Z,8
2017-05-27T02:55:09.156Z,12
2017-05-27T02:56:09.883Z,12
2017-05-27T02:57:10.611Z,16
2017-05-27T02:58:11.590Z,16
2017-05-27T02:59:12.323Z,20
2017-05-27T03:00:13.051Z,20
2017-05-27T03:01:13.784Z,24
2017-05-27T03:02:14.515Z,28
2017-05-27T03:03:15.495Z,32
2017-05-27T03:04:16.226Z,36
2017-05-27T03:05:16.959Z,40
2017-05-27T03:06:17.688Z,44
2017-05-27T03:07:18.415Z,48
2017-05-27T03:08:19.398Z,56
2017-05-27T03:09:20.126Z,64
2017-05-27T03:10:20.858Z,68
2017-05-27T03:11:21.585Z,76
2017-05-27T03:12:22.314Z,84
2017-05-27T03:13:23.295Z,92
2017-05-27T03:14:24.028Z,100
2017-05-27T03:15:24.757Z,112
2017-05-27T03:16:25.487Z,124
2017-05-27T03:17:26.216Z,132
2017-05-27T03:18:27.196Z,144
2017-05-27T03:19:27.929Z,156
2017-05-27T03:20:28.661Z,172
2017-05-27T03:21:29.390Z,184
2017-05-27T03:22:30.122Z,196
2017-05-27T03:23:31.154Z,212
2017-05-27T03:24:31.910Z,228
2017-05-27T03:25:32.642Z,244
2017-05-27T03:26:33.372Z,260
2017-05-27T03:27:34.107Z,276
2017-05-27T03:28:35.091Z,296
2017-05-27T03:29:35.848Z,316
2017-05-27T03:30:36.580Z,332
2017-05-27T03:31:37.340Z,352
2017-05-27T03:32:38.072Z,368
2017-05-27T03:33:39.054Z,388
2017-05-27T03:34:39.812Z,412
2017-05-27T03:35:40.545Z,432
2017-05-27T03:36:41.275Z,452
2017-05-27T03:37:42.011Z,472
2017-05-27T03:38:43.017Z,496
2017-05-27T03:39:43.748Z,516
2017-05-27T03:40:44.480Z,540
2017-05-27T03:41:45.212Z,560
2017-05-27T03:42:45.944Z,580
2017-05-27T03:43:46.927Z,604
2017-05-27T03:44:47.659Z,628
2017-05-27T03:45:48.391Z,648
2017-05-27T03:46:49.122Z,668
2017-05-27T03:47:49.856Z,692
2017-05-27T03:48:50.887Z,716
2017-05-27T03:49:51.620Z,736
2017-05-27T03:50:52.378Z,756
2017-05-27T03:51:53.108Z,776
2017-05-27T03:52:53.839Z,800
2017-05-27T03:53:54.820Z,824
2017-05-27T03:54:55.553Z,844
2017-05-27T03:55:56.282Z,868
2017-05-27T03:56:57.013Z,888
2017-05-27T03:57:57.747Z,912
2017-05-27T03:58:58.728Z,932
2017-05-27T03:59:59.458Z,952
2017-05-27T04:01:00.193Z,976
2017-05-27T04:02:00.926Z,992
2017-05-27T04:03:01.657Z,1016
2017-05-27T04:04:02.642Z,1036
2017-05-27T04:05:03.433Z,1056
2017-05-27T04:06:04.106Z,1076
2017-05-27T04:07:04.837Z,1096
2017-05-27T04:08:05.571Z,1112
2017-05-27T04:09:06.557Z,1132
2017-05-27T04:10:07.290Z,1152
2017-05-27T04:11:08.046Z,1168
2017-05-27T04:12:08.781Z,1188
2017-05-27T04:13:09.517Z,1208
2017-05-27T04:14:10.500Z,1224
2017-05-27T04:15:11.229Z,1244
2017-05-27T04:16:11.962Z,1264
2017-05-27T04:17:12.722Z,1276
2017-05-27T04:18:13.482Z,1292
2017-05-27T04:19:14.469Z,1312
2017-05-27T04:20:15.201Z,1328
2017-05-27T04:21:15.933Z,1348
2017-05-27T04:22:16.668Z,1364
2017-05-27T04:23:17.400Z,1380
2017-05-27T04:24:18.406Z,1396
2017-05-27T04:25:19.143Z,1416
2017-05-27T04:26:19.875Z,1428
2017-05-27T04:27:20.607Z,1444
2017-05-27T04:28:21.341Z,1456
2017-05-27T04:29:22.324Z,1476
2017-05-27T04:30:23.056Z,1488
2017-05-27T04:31:23.816Z,1504
2017-05-27T04:32:24.574Z,1524
2017-05-27T04:33:25.305Z,1536
2017-05-27T04:34:26.290Z,1552
2017-05-27T04:35:27.022Z,1564
2017-05-27T04:36:27.760Z,1580
2017-05-27T04:37:28.488Z,1592
2017-05-27T04:38:29.221Z,1608
2017-05-27T04:39:30.207Z,1620
2017-05-27T04:40:30.939Z,1632
2017-05-27T04:41:31.698Z,1644
2017-05-27T04:42:32.429Z,1660
2017-05-27T04:43:33.188Z,1676
2017-05-27T04:44:34.171Z,1692
2017-05-27T04:45:34.908Z,1708
2017-05-27T04:46:35.637Z,1716
2017-05-27T04:47:36.372Z,1732
2017-05-27T04:48:37.131Z,1744
2017-05-27T04:49:38.115Z,1760
2017-05-27T04:50:38.848Z,1780
2017-05-27T04:51:39.579Z,1788
2017-05-27T04:52:40.315Z,1796
2017-05-27T04:53:41.050Z,1804
2017-05-27T04:54:42.034Z,1820
2017-05-27T04:55:42.767Z,1836
2017-05-27T04:56:43.503Z,1844
2017-05-27T04:57:44.237Z,1856
2017-05-27T04:58:44.971Z,1864
2017-05-27T04:59:45.954Z,1876
2017-05-27T05:00:46.710Z,1884
2017-05-27T05:01:47.468Z,1888
2017-05-27T05:02:48.232Z,1908
2017-05-27T05:03:48.964Z,1908
2017-05-27T05:04:49.948Z,1924
2017-05-27T05:05:50.682Z,1944
2017-05-27T05:06:51.416Z,1944
2017-05-27T05:07:52.149Z,1964
2017-05-27T05:08:52.883Z,1976
2017-05-27T05:09:53.865Z,1988
2017-05-27T05:10:54.598Z,2000
2017-05-27T05:11:55.334Z,2016
2017-05-27T05:12:56.063Z,2028
2017-05-27T05:13:56.798Z,2032
2017-05-27T05:14:57.783Z,2044
2017-05-27T05:15:58.517Z,2052
2017-05-27T05:16:59.252Z,2068
2017-05-27T05:18:00.012Z,2068
2017-05-27T05:19:00.750Z,2088
2017-05-27T05:20:01.733Z,2100
2017-05-27T05:21:02.466Z,2108
2017-05-27T05:22:03.202Z,2120
2017-05-27T05:23:03.938Z,2128
2017-05-27T05:24:04.671Z,2140
2017-05-27T05:25:05.655Z,2152
2017-05-27T05:26:06.388Z,2164
2017-05-27T05:27:07.122Z,2172
2017-05-27T05:28:07.859Z,2184
2017-05-27T05:29:08.595Z,2196
2017-05-27T05:30:09.579Z,2204
2017-05-27T05:31:10.311Z,2208
2017-05-27T05:32:11.049Z,2216
2017-05-27T05:33:11.784Z,2228
2017-05-27T05:34:12.518Z,2236
2017-05-27T05:35:13.503Z,2256
2017-05-27T05:36:14.238Z,2260
2017-05-27T05:37:14.975Z,2276
2017-05-27T05:38:15.710Z,2288
2017-05-27T05:39:16.444Z,2300
2017-05-27T05:40:17.430Z,2300
2017-05-27T05:41:18.165Z,2312
2017-05-27T05:42:18.900Z,2320
2017-05-27T05:43:19.637Z,2324
2017-05-27T05:44:20.399Z,2332
2017-05-27T05:45:21.384Z,2356
2017-05-27T05:46:22.143Z,2340
2017-05-27T05:47:22.877Z,2364
2017-05-27T05:48:23.612Z,2368
2017-05-27T05:49:24.349Z,2384
2017-05-27T05:50:25.359Z,2388
2017-05-27T05:51:26.093Z,2396
2017-05-27T05:52:26.827Z,2424
2017-05-27T05:53:27.566Z,2432
2017-05-27T05:54:28.299Z,2440
2017-05-27T05:55:29.285Z,2444
2017-05-27T05:56:30.020Z,2460
2017-05-27T05:57:30.753Z,2480
2017-05-27T05:58:31.488Z,2484
2017-05-27T05:59:32.222Z,2492
2017-05-27T06:00:33.207Z,2516
2017-05-27T06:01:33.943Z,2524
2017-05-27T06:02:34.677Z,2548
2017-05-27T06:03:35.415Z,2572
2017-05-27T06:04:36.149Z,2568
2017-05-27T06:05:37.135Z,2584
2017-05-27T06:06:37.873Z,2596
2017-05-27T06:07:38.607Z,2612
2017-05-27T06:08:39.349Z,2612
2017-05-27T06:09:40.080Z,2624
2017-05-27T06:10:41.062Z,2640
2017-05-27T06:11:41.796Z,2668
2017-05-27T06:12:42.532Z,2668
2017-05-27T06:13:43.269Z,2664
2017-05-27T06:14:44.002Z,2688
2017-05-27T06:15:44.987Z,2688
2017-05-27T06:16:45.726Z,2696
2017-05-27T06:17:46.458Z,2712
2017-05-27T06:18:47.191Z,2732
2017-05-27T06:19:47.925Z,2740
2017-05-27T06:20:48.912Z,2756
2017-05-27T06:21:49.647Z,2756
2017-05-27T06:22:50.383Z,2764
2017-05-27T06:23:51.115Z,2792
2017-05-27T06:24:51.853Z,2840
2017-05-27T06:25:52.847Z,2812
2017-05-27T06:26:53.597Z,2836
2017-05-27T06:27:54.356Z,2828
2017-05-27T06:28:55.093Z,2828
2017-05-27T06:29:55.828Z,2856
2017-05-27T06:30:56.865Z,2860
2017-05-27T06:31:57.599Z,2892
2017-05-27T06:32:58.335Z,2884
2017-05-27T06:33:59.073Z,2996
2017-05-27T06:34:59.806Z,2932
2017-05-27T06:36:00.817Z,2984
2017-05-27T06:37:01.551Z,2968
2017-05-27T06:38:02.288Z,2984
2017-05-27T06:39:03.085Z,2984
2017-05-27T06:40:03.764Z,3008
2017-05-27T06:41:04.741Z,3012
2017-05-27T06:42:05.476Z,3000
2017-05-27T06:43:06.212Z,3020
2017-05-27T06:44:06.945Z,3040
2017-05-27T06:45:07.679Z,3020
2017-05-27T06:46:08.664Z,3020
2017-05-27T06:47:09.400Z,3076
2017-05-27T06:48:10.137Z,3056
2017-05-27T06:49:10.873Z,3060
2017-05-27T06:50:11.608Z,3068
2017-05-27T06:51:12.595Z,3116
2017-05-27T06:52:13.328Z,3128
2017-05-27T06:53:14.065Z,3148
2017-05-27T06:54:14.800Z,3148
2017-05-27T06:55:15.533Z,3136
2017-05-27T06:56:16.519Z,3156
2017-05-27T06:57:17.258Z,3176
2017-05-27T06:58:17.992Z,3176
2017-05-27T06:59:18.727Z,3180
2017-05-27T07:00:19.464Z,3244
2017-05-27T07:01:20.446Z,3212
2017-05-27T07:02:21.204Z,3256
2017-05-27T07:03:21.939Z,3276
2017-05-27T07:04:22.677Z,3284
2017-05-27T07:05:23.415Z,3232
2017-05-27T07:06:24.401Z,3296
2017-05-27T07:07:25.136Z,3308
2017-05-27T07:08:25.871Z,3384
2017-05-27T07:09:26.616Z,3316
2017-05-27T07:10:27.344Z,3416
2017-05-27T07:11:28.331Z,3392
2017-05-27T07:12:29.070Z,3400
2017-05-27T07:13:29.807Z,3428
2017-05-27T07:14:30.544Z,3456
2017-05-27T07:15:31.283Z,3436
2017-05-27T07:16:32.291Z,3452
2017-05-27T07:17:33.029Z,3488
2017-05-27T07:18:33.763Z,3508
2017-05-27T07:19:34.498Z,3544
2017-05-27T07:20:35.232Z,3540
2017-05-27T07:21:36.246Z,3604
2017-05-27T07:22:36.981Z,3612
2017-05-27T07:23:37.715Z,3612
2017-05-27T07:24:38.475Z,3632
2017-05-27T07:25:39.213Z,3680
2017-05-27T07:26:40.197Z,3732
2017-05-27T07:27:40.959Z,3748
2017-05-27T07:28:41.699Z,3876
2017-05-27T07:29:42.436Z,3888
2017-05-27T07:30:43.173Z,3912
2017-05-27T07:31:44.161Z,3984
2017-05-27T07:32:44.901Z,4116
2017-05-27T07:33:45.643Z,4260
2017-05-27T07:34:46.381Z,4344
2017-05-27T07:35:47.125Z,4728
2017-05-27T07:36:48.117Z,9104
2017-05-27T07:37:48.859Z,28352
2017-05-27T07:38:49.601Z,47488
2017-05-27T07:39:50.341Z,60736
2017-05-27T07:40:51.085Z,65280
2017-05-27T07:41:52.074Z,63712
2017-05-27T07:42:52.815Z,64320
2017-05-27T07:43:53.598Z,64576
2017-05-27T07:44:54.342Z,64832
2017-05-27T07:45:55.120Z,66464
2017-05-27T07:46:56.110Z,66400
2017-05-27T07:47:56.853Z,64928
2017-05-27T07:48:57.592Z,62816
2017-05-27T07:49:58.335Z,62176
2017-05-27T07:50:59.078Z,62624
2017-05-27T07:52:00.074Z,62272
2017-05-27T07:53:00.841Z,64384
2017-05-27T07:54:01.582Z,66304
2017-05-27T07:55:02.327Z,68928
2017-05-27T07:56:03.070Z,70816
2017-05-27T07:57:04.062Z,71168
2017-05-27T07:58:04.825Z,72704
2017-05-27T07:59:05.567Z,74592
2017-05-27T08:00:06.311Z,75008
2017-05-27T08:01:07.062Z,74496
2017-05-27T08:02:08.094Z,75968
2017-05-27T08:03:08.839Z,77120
2017-05-27T08:04:09.585Z,75712
2017-05-27T08:05:10.329Z,76032
2017-05-27T08:06:11.073Z,76832
2017-05-27T08:07:12.066Z,76192
2017-05-27T08:08:12.809Z,77664
2017-05-27T08:09:13.554Z,79552
2017-05-27T08:10:14.302Z,80032
2017-05-27T08:11:15.037Z,79488
2017-05-27T08:12:16.032Z,78496
2017-05-27T08:13:16.776Z,74880
2017-05-27T08:14:17.520Z,73760
2017-05-27T08:15:18.266Z,73216
2017-05-27T08:16:19.011Z,71040
2017-05-27T08:17:20.007Z,70720
2017-05-27T08:18:20.755Z,60896
2017-05-27T08:19:21.498Z,31520
2017-05-27T08:20:22.240Z,12852
2017-05-27T08:21:22.989Z,10700
2017-05-27T08:22:23.985Z,9792
2017-05-27T08:23:24.727Z,9296
2017-05-27T08:24:25.473Z,8956
2017-05-27T08:25:26.216Z,8688
2017-05-27T08:26:26.962Z,8676
2017-05-27T08:27:27.960Z,8588
2017-05-27T08:28:28.701Z,8528
2017-05-27T08:29:29.445Z,8480
2017-05-27T08:30:30.192Z,8480
2017-05-27T08:31:30.935Z,8508
2017-05-27T08:32:31.957Z,8580
2017-05-27T08:33:32.700Z,8656
2017-05-27T08:34:33.445Z,8832
2017-05-27T08:35:34.189Z,8992
2017-05-27T08:36:34.933Z,9188
2017-05-27T08:37:35.933Z,9536
2017-05-27T08:38:36.677Z,9944
2017-05-27T08:39:37.421Z,10608
2017-05-27T08:40:38.168Z,12012
2017-05-27T08:41:38.913Z,22944
2017-05-27T08:42:39.963Z,52800
2017-05-27T08:43:40.710Z,72480
2017-05-27T08:44:41.460Z,76032
2017-05-27T08:45:42.202Z,76000
2017-05-27T08:46:42.949Z,77312
2017-05-27T08:47:43.959Z,79168
2017-05-27T08:48:44.691Z,80480
2017-05-27T08:49:45.439Z,81184
2017-05-27T08:50:46.190Z,84832
2017-05-27T08:51:46.963Z,83840
2017-05-27T08:52:47.959Z,87584
2017-05-27T08:53:48.707Z,85504
2017-05-27T08:54:49.457Z,86144
2017-05-27T08:55:50.207Z,85280
2017-05-27T08:56:50.956Z,88640
2017-05-27T08:57:51.956Z,86112
2017-05-27T08:58:52.710Z,89376
2017-05-27T08:59:53.470Z,87648
2017-05-27T09:00:54.225Z,86848
2017-05-27T09:01:54.982Z,89184
2017-05-27T09:02:56.015Z,87680
2017-05-27T09:03:56.774Z,87712
2017-05-27T09:04:57.529Z,86368
2017-05-27T09:05:58.309Z,85920
2017-05-27T09:06:59.067Z,87776
2017-05-27T09:08:00.070Z,84960
2017-05-27T09:09:00.825Z,88160
2017-05-27T09:10:01.583Z,85312
2017-05-27T09:11:02.339Z,85472
2017-05-27T09:12:03.091Z,85952
2017-05-27T09:13:04.101Z,87776
2017-05-27T09:14:04.850Z,88480
2017-05-27T09:15:05.607Z,90080
2017-05-27T09:16:06.367Z,90784
2017-05-27T09:17:07.121Z,89344
2017-05-27T09:18:08.151Z,94240
2017-05-27T09:19:08.909Z,92896
2017-05-27T09:20:09.661Z,91424
2017-05-27T09:21:10.413Z,89824
2017-05-27T09:22:11.168Z,90144
2017-05-27T09:23:12.172Z,88352
2017-05-27T09:24:12.928Z,87104
2017-05-27T09:25:13.688Z,82848
2017-05-27T09:26:14.441Z,87232
2017-05-27T09:27:15.197Z,87808
2017-05-27T09:28:16.208Z,84576
2017-05-27T09:29:16.961Z,90048
2017-05-27T09:30:17.718Z,90688
2017-05-27T09:31:18.471Z,91232
2017-05-27T09:32:19.226Z,88320
2017-05-27T09:33:20.232Z,86944
2017-05-27T09:34:21.010Z,93216
2017-05-27T09:35:21.766Z,95360
2017-05-27T09:36:22.560Z,94400
2017-05-27T09:37:23.276Z,96032
2017-05-27T09:38:24.283Z,97664
2017-05-27T09:39:25.037Z,95360
2017-05-27T09:40:25.795Z,96320
2017-05-27T09:41:26.578Z,97920
2017-05-27T09:42:27.335Z,94336
2017-05-27T09:43:28.341Z,91232
2017-05-27T09:44:29.095Z,92288
2017-05-27T09:45:29.852Z,90496
2017-05-27T09:46:30.610Z,95648
2017-05-27T09:47:31.368Z,97984
2017-05-27T09:48:32.374Z,93920
2017-05-27T09:49:33.127Z,97824
2017-05-27T09:50:33.885Z,96768
2017-05-27T09:51:34.636Z,98528
2017-05-27T09:52:35.392Z,100704
2017-05-27T09:53:36.399Z,100832
2017-05-27T09:54:37.157Z,95264
2017-05-27T09:55:37.916Z,97632
2017-05-27T09:56:38.674Z,101472
2017-05-27T09:57:39.454Z,100480
2017-05-27T09:58:40.454Z,93728
2017-05-27T09:59:41.211Z,97248
2017-05-27T10:00:41.973Z,99360
2017-05-27T10:01:42.729Z,98496
2017-05-27T10:02:43.509Z,101856
2017-05-27T10:03:44.500Z,96800
2017-05-27T10:04:45.251Z,88192
2017-05-27T10:05:46.003Z,99520
2017-05-27T10:06:46.758Z,87488
2017-05-27T10:07:47.509Z,76384
2017-05-27T10:08:48.518Z,87968
2017-05-27T10:09:49.299Z,85056
2017-05-27T10:10:50.057Z,80352
2017-05-27T10:11:50.810Z,81952
2017-05-27T10:12:51.588Z,80992
2017-05-27T10:13:52.589Z,87136
2017-05-27T10:14:53.344Z,90560
2017-05-27T10:15:54.093Z,97568
2017-05-27T10:16:54.844Z,98752
2017-05-27T10:17:55.596Z,94144
2017-05-27T10:18:56.599Z,92160
2017-05-27T10:19:57.357Z,89728
2017-05-27T10:20:58.106Z,96992
2017-05-27T10:21:58.863Z,94752
2017-05-27T10:22:59.617Z,96736
2017-05-27T10:24:00.624Z,99648
2017-05-27T10:25:01.378Z,106656
2017-05-27T10:26:02.134Z,104448
2017-05-27T10:27:02.893Z,107232
2017-05-27T10:28:03.644Z,109952
2017-05-27T10:29:04.654Z,108224
2017-05-27T10:30:05.408Z,109408
2017-05-27T10:31:06.165Z,105664
2017-05-27T10:32:06.947Z,96384
2017-05-27T10:33:07.726Z,95104
2017-05-27T10:34:08.730Z,92640
2017-05-27T10:35:09.487Z,91680
2017-05-27T10:36:10.242Z,89696
2017-05-27T10:37:10.998Z,99552
2017-05-27T10:38:11.754Z,96192
2017-05-27T10:39:12.758Z,98240
2017-05-27T10:40:13.517Z,106720
2017-05-27T10:41:14.272Z,101792
2017-05-27T10:42:15.027Z,99840
2017-05-27T10:43:15.781Z,104384
2017-05-27T10:44:16.792Z,101728
2017-05-27T10:45:17.548Z,100032
2017-05-27T10:46:18.302Z,102368
2017-05-27T10:47:19.060Z,100064
2017-05-27T10:48:19.810Z,97760
2017-05-27T10:49:20.812Z,98944
2017-05-27T10:50:21.566Z,99904
2017-05-27T10:51:22.323Z,101952
2017-05-27T10:52:23.074Z,98080
2017-05-27T10:53:23.829Z,96928
2017-05-27T10:54:24.831Z,98048
2017-05-27T10:55:25.581Z,102784
2017-05-27T10:56:26.341Z,103904
2017-05-27T10:57:27.096Z,100992
2017-05-27T10:58:27.874Z,105728
2017-05-27T10:59:28.877Z,103584
2017-05-27T11:00:29.634Z,101760
2017-05-27T11:01:30.392Z,105728
2017-05-27T11:02:31.142Z,101088
2017-05-27T11:03:31.897Z,102816
2017-05-27T11:04:32.901Z,97152
2017-05-27T11:05:33.655Z,96256
2017-05-27T11:06:34.407Z,98400
2017-05-27T11:07:35.163Z,99360
2017-05-27T11:08:35.941Z,99808
2017-05-27T11:09:36.946Z,102720
2017-05-27T11:10:37.699Z,105632
2017-05-27T11:11:38.452Z,103072
2017-05-27T11:12:39.207Z,99616
2017-05-27T11:13:39.981Z,98656
2017-05-27T11:14:40.985Z,93600
2017-05-27T11:15:41.767Z,95520
2017-05-27T11:16:42.521Z,94848
2017-05-27T11:17:43.275Z,91072
2017-05-27T11:18:44.032Z,89888
2017-05-27T11:19:45.037Z,97632
2017-05-27T11:20:45.791Z,98816
2017-05-27T11:21:46.544Z,94624
2017-05-27T11:22:47.297Z,96672
2017-05-27T11:23:48.056Z,103552
2017-05-27T11:24:49.111Z,100384
2017-05-27T11:25:49.869Z,97312
2017-05-27T11:26:50.622Z,100416
2017-05-27T11:27:51.378Z,97376
2017-05-27T11:28:52.133Z,95264
2017-05-27T11:29:53.139Z,96384
2017-05-27T11:30:53.892Z,96672
2017-05-27T11:31:54.651Z,101696
2017-05-27T11:32:55.404Z,102272
2017-05-27T11:33:56.159Z,97088
2017-05-27T11:34:57.191Z,99520
2017-05-27T11:35:57.949Z,103968
2017-05-27T11:36:58.701Z,98400
2017-05-27T11:37:59.481Z,95584
2017-05-27T11:39:00.233Z,95904
2017-05-27T11:40:01.232Z,95456
2017-05-27T11:41:01.987Z,96928
2017-05-27T11:42:02.738Z,98336
2017-05-27T11:43:03.524Z,98176
2017-05-27T11:44:04.277Z,96256
2017-05-27T11:45:05.333Z,100352
2017-05-27T11:46:06.086Z,96672
2017-05-27T11:47:06.843Z,93248
2017-05-27T11:48:07.596Z,92288
2017-05-27T11:49:08.353Z,91648
2017-05-27T11:50:09.354Z,95808
2017-05-27T11:51:10.106Z,95680
2017-05-27T11:52:10.883Z,92352
2017-05-27T11:53:11.634Z,91808
2017-05-27T11:54:12.385Z,96640
2017-05-27T11:55:13.387Z,93888
2017-05-27T11:56:14.137Z,90560
2017-05-27T11:57:14.887Z,94400
2017-05-27T11:58:15.643Z,90784
2017-05-27T11:59:16.394Z,84864
2017-05-27T12:00:17.398Z,90944
2017-05-27T12:01:18.148Z,93280
2017-05-27T12:02:18.898Z,88288
2017-05-27T12:03:19.648Z,88192
2017-05-27T12:04:20.403Z,96640
2017-05-27T12:05:21.402Z,99616
2017-05-27T12:06:22.156Z,104160
2017-05-27T12:07:22.904Z,101024
2017-05-27T12:08:23.658Z,95072
2017-05-27T12:09:24.412Z,98848
2017-05-27T12:10:25.413Z,96800
2017-05-27T12:11:26.165Z,93152
2017-05-27T12:12:26.918Z,92640
2017-05-27T12:13:27.670Z,92832
2017-05-27T12:14:28.427Z,95200
2017-05-27T12:15:29.429Z,93952
2017-05-27T12:16:30.209Z,86304
2017-05-27T12:17:30.965Z,88640
2017-05-27T12:18:31.717Z,83328
2017-05-27T12:19:32.469Z,85696
2017-05-27T12:20:33.474Z,86208
2017-05-27T12:21:34.224Z,85600
2017-05-27T12:22:34.975Z,87840
2017-05-27T12:23:35.729Z,93728
2017-05-27T12:24:36.480Z,89536
2017-05-27T12:25:37.486Z,87584
2017-05-27T12:26:38.242Z,93632
2017-05-27T12:27:38.993Z,94080
2017-05-27T12:28:39.748Z,92608
2017-05-27T12:29:40.504Z,91776
2017-05-27T12:30:41.509Z,90272
2017-05-27T12:31:42.287Z,91520
2017-05-27T12:32:43.045Z,89568
2017-05-27T12:33:43.800Z,88736
2017-05-27T12:34:44.556Z,91200
2017-05-27T12:35:45.558Z,92800
2017-05-27T12:36:46.316Z,93088
2017-05-27T12:37:47.070Z,95552
2017-05-27T12:38:47.827Z,96096
2017-05-27T12:39:48.582Z,95584
2017-05-27T12:40:49.589Z,93216
2017-05-27T12:41:50.339Z,94464
2017-05-27T12:42:51.090Z,95072
2017-05-27T12:43:51.845Z,94944
2017-05-27T12:44:52.600Z,94816
2017-05-27T12:45:53.603Z,95136
2017-05-27T12:46:54.355Z,90400
2017-05-27T12:47:55.109Z,91104
2017-05-27T12:48:55.861Z,91360
2017-05-27T12:49:56.614Z,87008
2017-05-27T12:50:57.619Z,85056
2017-05-27T12:51:58.376Z,87552
2017-05-27T12:52:59.156Z,91104
2017-05-27T12:53:59.912Z,91552
2017-05-27T12:55:00.665Z,91904
2017-05-27T12:56:01.669Z,91296
2017-05-27T12:57:02.426Z,89920
2017-05-27T12:58:03.181Z,88736
2017-05-27T12:59:03.932Z,91936
2017-05-27T13:00:04.691Z,88128
2017-05-27T13:01:05.689Z,87008
2017-05-27T13:02:06.440Z,87264
2017-05-27T13:03:07.194Z,83776
2017-05-27T13:04:07.948Z,84640
2017-05-27T13:05:08.702Z,86048
2017-05-27T13:06:09.700Z,91488
2017-05-27T13:07:10.477Z,95296
2017-05-27T13:08:11.232Z,89728
2017-05-27T13:09:11.987Z,89536
2017-05-27T13:10:12.735Z,91328
2017-05-27T13:11:13.738Z,88608
2017-05-27T13:12:14.491Z,87232
2017-05-27T13:13:15.238Z,89952
2017-05-27T13:14:15.991Z,93088
2017-05-27T13:15:16.744Z,90720
2017-05-27T13:16:17.747Z,89952
2017-05-27T13:17:18.501Z,89248
2017-05-27T13:18:19.253Z,91648
2017-05-27T13:19:20.008Z,88256
2017-05-27T13:20:20.759Z,87712
2017-05-27T13:21:21.764Z,89120
2017-05-27T13:22:22.513Z,86048
2017-05-27T13:23:23.293Z,84064
2017-05-27T13:24:24.046Z,84640
2017-05-27T13:25:24.794Z,86880
2017-05-27T13:26:25.798Z,85760
2017-05-27T13:27:26.550Z,84192
2017-05-27T13:28:27.303Z,88768
2017-05-27T13:29:28.053Z,90368
2017-05-27T13:30:28.803Z,85728
2017-05-27T13:31:29.834Z,86880
2017-05-27T13:32:30.590Z,85824
2017-05-27T13:33:31.339Z,85280
2017-05-27T13:34:32.094Z,82496
2017-05-27T13:35:32.848Z,83232
2017-05-27T13:36:33.857Z,85120